Ana Sayfa
METAR-TAF:

METAR-TAF

Havaalanları :

Malé, Maldivler

Enlem: 04-12N, Boylam: 073-32E, yükseklik: 2 m

Güncel hava durumu gözlemi

Rapor saat 03:00 UTC de 56 dakika önce yapıldı.
Rüzgar güneybatıdan 10 kt, güney ve batı/güneybatı arasında değişken
Sıcaklık 30°C
Nem 89%
Basınç 1011 hPa
Görüş mesafesi 10 km veya daha fazla
1800 ft yükseklikte parçalı bulutlu, Yükselen kümülüs.

METAR: VRMM 180300Z 23010KT 190V250 9999 SCT018TCU 30/28 Q1011 NOSIG

Saat: 08:56 (03:56 UTC)

Tahmin

Rapor saat 23:00 UTC de 4 saat ve 56 dakika önce yapıldı.
Ayın 18'si saat 00 UTC'den ayın 19'si saat 06 UTC'ye kadar geçerli Tahmin
Rüzgar batıdan 8 kt
Görüş mesafesi 10 km veya daha fazla
1700 ft yükseklikte az bulutlu, Yükselen kümülüs.
Geçici
ayın 18'si saat 00 UTC'den ayın 18'si saat 06 UTC'ye kadar
Görüş mesafesi: 5000 m
1700 ft yükseklikte az bulutlu, Kümülonimbus.
sağanak yağmurlar,

TAF: VRMM 172300Z 1800/1906 28008KT 9999 FEW017TCU TEMPO 1800/1806 5000 SHRA FEW017CB

4.000'den fazla havaalanı için hava durumu gözlemleri ve tahminleri (METAR ve TAF raporları).

Kullanılabilir istasyonlar harita üzerinde sarı ve kırmızı noktalarla gösterilir.

İstasyonun adını görmek için fareyi noktanın üzerinde gezdirin.

Sonrasında hava gözlem ve tahminlerini görmek için tıklayın.

Haritayı değiştirmek için: yaklaştırmak için siyah artı işaretli yeşil düğmeye ve uzaklaştırmak için de eksi işaretli düğmeye hızla tıklayın; bitişik haritalar için yeşil okları kullanın.


METAR-TAF: